sensor_id;sensor_type;location;lat;lon;timestamp;P1;durP1;ratioP1;P2;durP2;ratioP2
75787;SDS011;64406;50.024;14.492;2023-04-09T00:00:15;33.13;;;16.08;;
75787;SDS011;64406;50.024;14.492;2023-04-09T00:03:00;32.25;;;16.48;;
75787;SDS011;64406;50.024;14.492;2023-04-09T00:05:26;34.08;;;15.38;;
75787;SDS011;64406;50.024;14.492;2023-04-09T00:07:52;35.47;;;16.55;;
75787;SDS011;64406;50.024;14.492;2023-04-09T00:10:18;30.58;;;15.73;;
75787;SDS011;64406;50.024;14.492;2023-04-09T00:12:43;31.98;;;17.00;;
75787;SDS011;64406;50.024;14.492;2023-04-09T00:15:09;28.60;;;15.93;;
75787;SDS011;64406;50.024;14.492;2023-04-09T00:17:35;32.08;;;16.20;;
75787;SDS011;64406;50.024;14.492;2023-04-09T00:20:01;37.30;;;17.95;;
75787;SDS011;64406;50.024;14.492;2023-04-09T00:22:26;33.90;;;17.48;;
75787;SDS011;64406;50.024;14.492;2023-04-09T00:24:52;31.83;;;16.88;;
75787;SDS011;64406;50.024;14.492;2023-04-09T00:27:17;29.80;;;16.40;;
75787;SDS011;64406;50.024;14.492;2023-04-09T00:29:43;31.27;;;16.50;;
75787;SDS011;64406;50.024;14.492;2023-04-09T00:32:08;30.52;;;15.35;;
75787;SDS011;64406;50.024;14.492;2023-04-09T00:34:34;31.33;;;16.77;;
75787;SDS011;64406;50.024;14.492;2023-04-09T00:37:00;32.25;;;16.42;;
75787;SDS011;64406;50.024;14.492;2023-04-09T00:39:26;31.00;;;16.40;;
75787;SDS011;64406;50.024;14.492;2023-04-09T00:41:58;31.50;;;17.73;;
75787;SDS011;64406;50.024;14.492;2023-04-09T00:44:27;31.42;;;16.85;;
75787;SDS011;64406;50.024;14.492;2023-04-09T00:46:53;34.30;;;17.33;;
75787;SDS011;64406;50.024;14.492;2023-04-09T00:49:19;29.25;;;17.77;;
75787;SDS011;64406;50.024;14.492;2023-04-09T00:51:45;35.78;;;17.20;;
75787;SDS011;64406;50.024;14.492;2023-04-09T00:54:12;34.30;;;17.05;;
75787;SDS011;64406;50.024;14.492;2023-04-09T00:56:38;29.90;;;16.55;;
75787;SDS011;64406;50.024;14.492;2023-04-09T00:59:06;34.38;;;17.77;;
75787;SDS011;64406;50.024;14.492;2023-04-09T01:01:32;31.98;;;15.88;;
75787;SDS011;64406;50.024;14.492;2023-04-09T01:03:58;33.15;;;16.70;;
75787;SDS011;64406;50.024;14.492;2023-04-09T01:06:28;35.83;;;16.40;;
75787;SDS011;64406;50.024;14.492;2023-04-09T01:09:03;33.15;;;16.95;;
75787;SDS011;64406;50.024;14.492;2023-04-09T01:11:37;32.25;;;16.10;;
75787;SDS011;64406;50.024;14.492;2023-04-09T01:14:11;29.67;;;15.55;;
75787;SDS011;64406;50.024;14.492;2023-04-09T01:16:46;30.70;;;15.98;;
75787;SDS011;64406;50.024;14.492;2023-04-09T01:22:25;33.47;;;17.20;;
75787;SDS011;64406;50.024;14.492;2023-04-09T01:24:59;32.67;;;17.92;;
75787;SDS011;64406;50.024;14.492;2023-04-09T01:27:32;32.03;;;16.73;;
75787;SDS011;64406;50.024;14.492;2023-04-09T01:30:06;34.45;;;17.98;;
75787;SDS011;64406;50.024;14.492;2023-04-09T01:32:33;34.50;;;16.88;;
75787;SDS011;64406;50.024;14.492;2023-04-09T01:35:01;31.35;;;16.67;;
75787;SDS011;64406;50.024;14.492;2023-04-09T01:37:28;29.67;;;16.05;;
75787;SDS011;64406;50.024;14.492;2023-04-09T01:39:54;33.45;;;16.92;;
75787;SDS011;64406;50.024;14.492;2023-04-09T01:42:20;30.77;;;16.17;;
75787;SDS011;64406;50.024;14.492;2023-04-09T01:44:46;31.95;;;16.92;;
75787;SDS011;64406;50.024;14.492;2023-04-09T01:47:12;33.40;;;17.73;;
75787;SDS011;64406;50.024;14.492;2023-04-09T01:49:38;31.95;;;16.50;;
75787;SDS011;64406;50.024;14.492;2023-04-09T01:52:06;34.72;;;18.13;;
75787;SDS011;64406;50.024;14.492;2023-04-09T01:54:34;32.50;;;16.58;;
75787;SDS011;64406;50.024;14.492;2023-04-09T01:56:59;29.52;;;17.58;;
75787;SDS011;64406;50.024;14.492;2023-04-09T01:59:25;35.95;;;17.80;;
75787;SDS011;64406;50.024;14.492;2023-04-09T02:04:23;34.35;;;17.52;;
75787;SDS011;64406;50.024;14.492;2023-04-09T02:07:01;36.65;;;17.35;;
75787;SDS011;64406;50.024;14.492;2023-04-09T02:09:31;38.15;;;18.52;;
75787;SDS011;64406;50.024;14.492;2023-04-09T02:12:01;32.25;;;15.90;;
75787;SDS011;64406;50.024;14.492;2023-04-09T02:14:28;39.75;;;18.73;;
75787;SDS011;64406;50.024;14.492;2023-04-09T02:16:59;38.83;;;18.52;;
75787;SDS011;64406;50.024;14.492;2023-04-09T02:19:42;35.78;;;17.98;;
75787;SDS011;64406;50.024;14.492;2023-04-09T02:22:10;37.03;;;16.38;;
75787;SDS011;64406;50.024;14.492;2023-04-09T02:24:36;34.17;;;17.83;;
75787;SDS011;64406;50.024;14.492;2023-04-09T02:27:02;37.80;;;19.17;;
75787;SDS011;64406;50.024;14.492;2023-04-09T02:29:29;36.65;;;19.30;;
75787;SDS011;64406;50.024;14.492;2023-04-09T02:31:55;34.25;;;18.17;;
75787;SDS011;64406;50.024;14.492;2023-04-09T02:34:21;37.55;;;18.85;;
75787;SDS011;64406;50.024;14.492;2023-04-09T02:36:47;37.95;;;18.00;;
75787;SDS011;64406;50.024;14.492;2023-04-09T02:39:13;29.63;;;17.35;;
75787;SDS011;64406;50.024;14.492;2023-04-09T02:41:38;31.70;;;16.38;;
75787;SDS011;64406;50.024;14.492;2023-04-09T02:44:04;41.63;;;19.30;;
75787;SDS011;64406;50.024;14.492;2023-04-09T02:46:29;38.60;;;19.00;;
75787;SDS011;64406;50.024;14.492;2023-04-09T02:48:55;37.25;;;18.48;;
75787;SDS011;64406;50.024;14.492;2023-04-09T02:51:21;37.38;;;20.15;;
75787;SDS011;64406;50.024;14.492;2023-04-09T02:53:46;34.80;;;18.77;;
75787;SDS011;64406;50.024;14.492;2023-04-09T02:56:12;43.38;;;20.50;;
75787;SDS011;64406;50.024;14.492;2023-04-09T02:58:38;37.90;;;19.75;;
75787;SDS011;64406;50.024;14.492;2023-04-09T03:01:04;44.70;;;19.55;;
75787;SDS011;64406;50.024;14.492;2023-04-09T03:03:30;40.25;;;19.83;;
75787;SDS011;64406;50.024;14.492;2023-04-09T03:05:55;41.85;;;20.15;;
75787;SDS011;64406;50.024;14.492;2023-04-09T03:08:21;36.08;;;18.73;;
75787;SDS011;64406;50.024;14.492;2023-04-09T03:10:47;42.38;;;20.73;;
75787;SDS011;64406;50.024;14.492;2023-04-09T03:13:13;39.85;;;19.10;;
75787;SDS011;64406;50.024;14.492;2023-04-09T03:15:38;40.75;;;20.25;;
75787;SDS011;64406;50.024;14.492;2023-04-09T03:18:04;39.63;;;19.42;;
75787;SDS011;64406;50.024;14.492;2023-04-09T03:20:29;41.53;;;20.15;;
75787;SDS011;64406;50.024;14.492;2023-04-09T03:22:55;39.85;;;20.95;;
75787;SDS011;64406;50.024;14.492;2023-04-09T03:25:21;37.45;;;20.20;;
75787;SDS011;64406;50.024;14.492;2023-04-09T03:27:47;38.67;;;20.02;;
75787;SDS011;64406;50.024;14.492;2023-04-09T03:30:12;37.35;;;20.13;;
75787;SDS011;64406;50.024;14.492;2023-04-09T03:32:38;43.78;;;20.25;;
75787;SDS011;64406;50.024;14.492;2023-04-09T03:35:03;42.83;;;19.55;;
75787;SDS011;64406;50.024;14.492;2023-04-09T03:37:29;40.03;;;19.50;;
75787;SDS011;64406;50.024;14.492;2023-04-09T03:39:55;43.38;;;20.40;;
75787;SDS011;64406;50.024;14.492;2023-04-09T03:42:20;40.38;;;20.00;;
75787;SDS011;64406;50.024;14.492;2023-04-09T03:44:46;45.47;;;21.48;;
75787;SDS011;64406;50.024;14.492;2023-04-09T03:47:11;41.80;;;19.10;;
75787;SDS011;64406;50.024;14.492;2023-04-09T03:49:37;38.45;;;19.90;;
75787;SDS011;64406;50.024;14.492;2023-04-09T03:52:03;40.70;;;19.77;;
75787;SDS011;64406;50.024;14.492;2023-04-09T03:54:30;40.63;;;20.08;;
75787;SDS011;64406;50.024;14.492;2023-04-09T03:56:56;35.63;;;19.02;;
75787;SDS011;64406;50.024;14.492;2023-04-09T03:59:21;36.38;;;19.20;;
75787;SDS011;64406;50.024;14.492;2023-04-09T04:01:48;37.67;;;19.52;;
75787;SDS011;64406;50.024;14.492;2023-04-09T04:04:13;41.05;;;19.92;;
75787;SDS011;64406;50.024;14.492;2023-04-09T04:06:39;40.33;;;18.95;;
75787;SDS011;64406;50.024;14.492;2023-04-09T04:09:04;43.00;;;20.55;;
75787;SDS011;64406;50.024;14.492;2023-04-09T04:11:30;42.72;;;20.65;;
75787;SDS011;64406;50.024;14.492;2023-04-09T04:13:56;42.13;;;21.02;;
75787;SDS011;64406;50.024;14.492;2023-04-09T04:16:21;38.28;;;19.30;;
75787;SDS011;64406;50.024;14.492;2023-04-09T04:18:47;39.80;;;19.67;;
75787;SDS011;64406;50.024;14.492;2023-04-09T04:21:13;39.80;;;20.27;;
75787;SDS011;64406;50.024;14.492;2023-04-09T04:23:39;37.95;;;19.13;;
75787;SDS011;64406;50.024;14.492;2023-04-09T04:26:08;39.45;;;18.65;;
75787;SDS011;64406;50.024;14.492;2023-04-09T04:28:35;41.08;;;21.13;;
75787;SDS011;64406;50.024;14.492;2023-04-09T04:31:01;40.00;;;20.48;;
75787;SDS011;64406;50.024;14.492;2023-04-09T04:33:27;42.88;;;21.27;;
75787;SDS011;64406;50.024;14.492;2023-04-09T04:35:53;40.35;;;19.83;;
75787;SDS011;64406;50.024;14.492;2023-04-09T04:38:18;42.33;;;20.83;;
75787;SDS011;64406;50.024;14.492;2023-04-09T04:40:44;42.83;;;20.77;;
75787;SDS011;64406;50.024;14.492;2023-04-09T04:43:10;36.92;;;19.95;;
75787;SDS011;64406;50.024;14.492;2023-04-09T04:45:35;37.17;;;19.42;;
75787;SDS011;64406;50.024;14.492;2023-04-09T04:48:01;40.97;;;20.33;;
75787;SDS011;64406;50.024;14.492;2023-04-09T04:50:26;46.03;;;19.83;;
75787;SDS011;64406;50.024;14.492;2023-04-09T04:52:52;42.45;;;20.55;;
75787;SDS011;64406;50.024;14.492;2023-04-09T04:55:18;36.22;;;20.08;;
75787;SDS011;64406;50.024;14.492;2023-04-09T04:57:43;37.97;;;20.63;;
75787;SDS011;64406;50.024;14.492;2023-04-09T05:00:09;39.55;;;19.85;;
75787;SDS011;64406;50.024;14.492;2023-04-09T05:02:35;41.88;;;20.42;;
75787;SDS011;64406;50.024;14.492;2023-04-09T05:05:01;45.35;;;21.70;;
75787;SDS011;64406;50.024;14.492;2023-04-09T05:07:26;42.13;;;20.27;;
75787;SDS011;64406;50.024;14.492;2023-04-09T05:09:52;40.65;;;20.90;;
75787;SDS011;64406;50.024;14.492;2023-04-09T05:12:17;44.85;;;21.30;;
75787;SDS011;64406;50.024;14.492;2023-04-09T05:14:43;45.33;;;21.90;;
75787;SDS011;64406;50.024;14.492;2023-04-09T05:17:09;45.15;;;21.80;;
75787;SDS011;64406;50.024;14.492;2023-04-09T05:19:34;43.22;;;22.40;;
75787;SDS011;64406;50.024;14.492;2023-04-09T05:22:00;38.13;;;20.33;;
75787;SDS011;64406;50.024;14.492;2023-04-09T05:24:26;42.83;;;19.52;;
75787;SDS011;64406;50.024;14.492;2023-04-09T05:26:51;47.47;;;20.85;;
75787;SDS011;64406;50.024;14.492;2023-04-09T05:29:17;42.78;;;19.75;;
75787;SDS011;64406;50.024;14.492;2023-04-09T05:31:42;41.97;;;20.17;;
75787;SDS011;64406;50.024;14.492;2023-04-09T05:34:08;39.72;;;18.75;;
75787;SDS011;64406;50.024;14.492;2023-04-09T05:36:33;37.00;;;19.00;;
75787;SDS011;64406;50.024;14.492;2023-04-09T05:38:59;40.45;;;20.13;;
75787;SDS011;64406;50.024;14.492;2023-04-09T05:41:25;37.95;;;19.75;;
75787;SDS011;64406;50.024;14.492;2023-04-09T05:43:50;39.55;;;19.95;;
75787;SDS011;64406;50.024;14.492;2023-04-09T05:46:16;37.72;;;19.92;;
75787;SDS011;64406;50.024;14.492;2023-04-09T05:48:42;36.47;;;18.20;;
75787;SDS011;64406;50.024;14.492;2023-04-09T05:51:07;35.70;;;18.77;;
75787;SDS011;64406;50.024;14.492;2023-04-09T05:53:34;32.78;;;18.55;;
75787;SDS011;64406;50.024;14.492;2023-04-09T05:55:59;39.55;;;21.02;;
75787;SDS011;64406;50.024;14.492;2023-04-09T05:58:27;38.63;;;19.13;;
75787;SDS011;64406;50.024;14.492;2023-04-09T06:00:53;30.42;;;17.05;;
75787;SDS011;64406;50.024;14.492;2023-04-09T06:03:19;37.58;;;17.42;;
75787;SDS011;64406;50.024;14.492;2023-04-09T06:05:45;38.28;;;19.05;;
75787;SDS011;64406;50.024;14.492;2023-04-09T06:08:11;33.85;;;17.80;;
75787;SDS011;64406;50.024;14.492;2023-04-09T06:10:38;38.33;;;20.08;;
75787;SDS011;64406;50.024;14.492;2023-04-09T06:13:03;33.42;;;17.17;;
75787;SDS011;64406;50.024;14.492;2023-04-09T06:15:30;35.72;;;18.15;;
75787;SDS011;64406;50.024;14.492;2023-04-09T06:17:55;35.15;;;17.55;;
75787;SDS011;64406;50.024;14.492;2023-04-09T06:20:21;34.03;;;18.13;;
75787;SDS011;64406;50.024;14.492;2023-04-09T06:22:46;31.75;;;16.63;;
75787;SDS011;64406;50.024;14.492;2023-04-09T06:25:12;37.80;;;18.38;;
75787;SDS011;64406;50.024;14.492;2023-04-09T06:27:38;34.08;;;16.77;;
75787;SDS011;64406;50.024;14.492;2023-04-09T06:30:03;32.42;;;17.83;;
75787;SDS011;64406;50.024;14.492;2023-04-09T06:32:30;34.70;;;18.08;;
75787;SDS011;64406;50.024;14.492;2023-04-09T06:34:55;32.70;;;17.48;;
75787;SDS011;64406;50.024;14.492;2023-04-09T06:37:21;32.10;;;16.52;;
75787;SDS011;64406;50.024;14.492;2023-04-09T06:39:46;33.25;;;17.08;;
75787;SDS011;64406;50.024;14.492;2023-04-09T06:42:12;32.33;;;17.23;;
75787;SDS011;64406;50.024;14.492;2023-04-09T06:44:37;36.08;;;18.15;;
75787;SDS011;64406;50.024;14.492;2023-04-09T06:47:03;32.17;;;16.92;;
75787;SDS011;64406;50.024;14.492;2023-04-09T06:49:28;33.80;;;17.65;;
75787;SDS011;64406;50.024;14.492;2023-04-09T06:51:54;25.48;;;14.60;;
75787;SDS011;64406;50.024;14.492;2023-04-09T06:54:20;28.98;;;16.73;;
75787;SDS011;64406;50.024;14.492;2023-04-09T06:56:45;31.30;;;16.65;;
75787;SDS011;64406;50.024;14.492;2023-04-09T06:59:11;30.42;;;17.00;;
75787;SDS011;64406;50.024;14.492;2023-04-09T07:01:37;30.23;;;17.35;;
75787;SDS011;64406;50.024;14.492;2023-04-09T07:04:03;30.17;;;16.20;;
75787;SDS011;64406;50.024;14.492;2023-04-09T07:06:29;31.20;;;17.05;;
75787;SDS011;64406;50.024;14.492;2023-04-09T07:08:54;33.63;;;18.40;;
75787;SDS011;64406;50.024;14.492;2023-04-09T07:11:20;32.65;;;17.40;;
75787;SDS011;64406;50.024;14.492;2023-04-09T07:13:46;32.38;;;17.88;;
75787;SDS011;64406;50.024;14.492;2023-04-09T07:16:11;33.78;;;17.73;;
75787;SDS011;64406;50.024;14.492;2023-04-09T07:18:37;37.85;;;19.80;;
75787;SDS011;64406;50.024;14.492;2023-04-09T07:21:03;33.85;;;17.63;;
75787;SDS011;64406;50.024;14.492;2023-04-09T07:23:28;37.75;;;20.23;;
75787;SDS011;64406;50.024;14.492;2023-04-09T07:25:54;36.55;;;18.08;;
75787;SDS011;64406;50.024;14.492;2023-04-09T07:28:19;33.03;;;18.08;;
75787;SDS011;64406;50.024;14.492;2023-04-09T07:30:45;33.13;;;18.08;;
75787;SDS011;64406;50.024;14.492;2023-04-09T07:33:11;34.25;;;17.40;;
75787;SDS011;64406;50.024;14.492;2023-04-09T07:35:36;34.22;;;17.55;;
75787;SDS011;64406;50.024;14.492;2023-04-09T07:38:02;35.28;;;17.85;;
75787;SDS011;64406;50.024;14.492;2023-04-09T07:40:28;35.35;;;17.40;;
75787;SDS011;64406;50.024;14.492;2023-04-09T07:42:53;32.55;;;17.75;;
75787;SDS011;64406;50.024;14.492;2023-04-09T07:45:20;31.13;;;17.95;;
75787;SDS011;64406;50.024;14.492;2023-04-09T07:47:45;32.60;;;16.88;;
75787;SDS011;64406;50.024;14.492;2023-04-09T07:50:11;35.85;;;18.63;;
75787;SDS011;64406;50.024;14.492;2023-04-09T07:52:37;33.58;;;17.10;;
75787;SDS011;64406;50.024;14.492;2023-04-09T07:55:03;32.25;;;16.70;;
75787;SDS011;64406;50.024;14.492;2023-04-09T07:57:31;34.20;;;17.27;;
75787;SDS011;64406;50.024;14.492;2023-04-09T07:59:57;32.42;;;17.13;;
75787;SDS011;64406;50.024;14.492;2023-04-09T08:02:23;37.17;;;18.85;;
75787;SDS011;64406;50.024;14.492;2023-04-09T08:04:49;30.85;;;17.45;;
75787;SDS011;64406;50.024;14.492;2023-04-09T08:07:14;34.55;;;17.42;;
75787;SDS011;64406;50.024;14.492;2023-04-09T08:09:40;32.67;;;17.33;;
75787;SDS011;64406;50.024;14.492;2023-04-09T08:12:06;32.63;;;17.42;;
75787;SDS011;64406;50.024;14.492;2023-04-09T08:14:31;33.35;;;17.65;;
75787;SDS011;64406;50.024;14.492;2023-04-09T08:16:57;37.15;;;18.05;;
75787;SDS011;64406;50.024;14.492;2023-04-09T08:19:24;35.10;;;17.80;;
75787;SDS011;64406;50.024;14.492;2023-04-09T08:21:49;34.60;;;18.58;;
75787;SDS011;64406;50.024;14.492;2023-04-09T08:24:15;31.70;;;17.15;;
75787;SDS011;64406;50.024;14.492;2023-04-09T08:26:41;30.60;;;16.77;;
75787;SDS011;64406;50.024;14.492;2023-04-09T08:29:07;31.17;;;16.15;;
75787;SDS011;64406;50.024;14.492;2023-04-09T08:31:34;35.80;;;19.48;;
75787;SDS011;64406;50.024;14.492;2023-04-09T08:34:03;33.20;;;17.50;;
75787;SDS011;64406;50.024;14.492;2023-04-09T08:36:30;32.03;;;17.27;;
75787;SDS011;64406;50.024;14.492;2023-04-09T08:38:56;31.13;;;17.10;;
75787;SDS011;64406;50.024;14.492;2023-04-09T08:41:25;30.08;;;17.35;;
75787;SDS011;64406;50.024;14.492;2023-04-09T08:43:52;27.45;;;16.52;;
75787;SDS011;64406;50.024;14.492;2023-04-09T08:46:18;33.35;;;17.27;;
75787;SDS011;64406;50.024;14.492;2023-04-09T08:48:44;30.50;;;16.42;;
75787;SDS011;64406;50.024;14.492;2023-04-09T08:51:18;34.42;;;17.83;;
75787;SDS011;64406;50.024;14.492;2023-04-09T08:53:51;29.30;;;16.98;;
75787;SDS011;64406;50.024;14.492;2023-04-09T08:56:20;31.60;;;17.10;;
75787;SDS011;64406;50.024;14.492;2023-04-09T08:58:47;30.98;;;16.80;;
75787;SDS011;64406;50.024;14.492;2023-04-09T09:01:22;28.95;;;15.40;;
75787;SDS011;64406;50.024;14.492;2023-04-09T09:06:34;33.67;;;18.15;;
75787;SDS011;64406;50.024;14.492;2023-04-09T09:09:06;33.75;;;19.15;;
75787;SDS011;64406;50.024;14.492;2023-04-09T09:11:40;33.28;;;17.08;;
75787;SDS011;64406;50.024;14.492;2023-04-09T09:14:17;29.80;;;16.00;;
75787;SDS011;64406;50.024;14.492;2023-04-09T09:19:29;28.30;;;15.55;;
75787;SDS011;64406;50.024;14.492;2023-04-09T09:21:58;32.08;;;17.05;;
75787;SDS011;64406;50.024;14.492;2023-04-09T09:24:29;28.35;;;15.57;;
75787;SDS011;64406;50.024;14.492;2023-04-09T09:26:56;31.35;;;16.42;;
75787;SDS011;64406;50.024;14.492;2023-04-09T09:29:23;35.42;;;17.88;;
75787;SDS011;64406;50.024;14.492;2023-04-09T09:31:50;29.60;;;16.10;;
75787;SDS011;64406;50.024;14.492;2023-04-09T09:34:17;29.08;;;17.00;;
75787;SDS011;64406;50.024;14.492;2023-04-09T09:36:44;29.05;;;16.25;;
75787;SDS011;64406;50.024;14.492;2023-04-09T09:39:11;26.73;;;15.60;;
75787;SDS011;64406;50.024;14.492;2023-04-09T09:41:38;30.77;;;16.20;;
75787;SDS011;64406;50.024;14.492;2023-04-09T09:44:08;27.67;;;15.40;;
75787;SDS011;64406;50.024;14.492;2023-04-09T09:46:38;26.63;;;16.13;;
75787;SDS011;64406;50.024;14.492;2023-04-09T09:49:05;26.42;;;16.00;;
75787;SDS011;64406;50.024;14.492;2023-04-09T09:51:32;25.25;;;16.10;;
75787;SDS011;64406;50.024;14.492;2023-04-09T09:54:01;29.30;;;17.33;;
75787;SDS011;64406;50.024;14.492;2023-04-09T09:56:32;27.77;;;16.75;;
75787;SDS011;64406;50.024;14.492;2023-04-09T09:59:01;30.92;;;17.80;;
75787;SDS011;64406;50.024;14.492;2023-04-09T10:01:32;27.35;;;15.05;;
75787;SDS011;64406;50.024;14.492;2023-04-09T10:03:59;27.85;;;16.60;;
75787;SDS011;64406;50.024;14.492;2023-04-09T10:06:26;27.05;;;16.45;;
75787;SDS011;64406;50.024;14.492;2023-04-09T10:08:55;32.13;;;18.13;;
75787;SDS011;64406;50.024;14.492;2023-04-09T10:11:23;26.98;;;16.33;;
75787;SDS011;64406;50.024;14.492;2023-04-09T10:13:50;28.25;;;16.67;;
75787;SDS011;64406;50.024;14.492;2023-04-09T10:16:20;29.73;;;17.48;;
75787;SDS011;64406;50.024;14.492;2023-04-09T10:18:47;28.25;;;16.60;;
75787;SDS011;64406;50.024;14.492;2023-04-09T10:24:00;27.58;;;17.15;;
75787;SDS011;64406;50.024;14.492;2023-04-09T10:26:31;27.23;;;16.15;;
75787;SDS011;64406;50.024;14.492;2023-04-09T10:29:05;28.05;;;16.40;;
75787;SDS011;64406;50.024;14.492;2023-04-09T10:34:10;28.75;;;16.17;;
75787;SDS011;64406;50.024;14.492;2023-04-09T10:36:38;30.15;;;16.98;;
75787;SDS011;64406;50.024;14.492;2023-04-09T10:39:11;29.17;;;15.73;;
75787;SDS011;64406;50.024;14.492;2023-04-09T10:41:37;30.08;;;16.23;;
75787;SDS011;64406;50.024;14.492;2023-04-09T10:44:05;28.50;;;16.70;;
75787;SDS011;64406;50.024;14.492;2023-04-09T10:46:34;22.58;;;13.43;;
75787;SDS011;64406;50.024;14.492;2023-04-09T10:51:35;24.60;;;14.77;;
75787;SDS011;64406;50.024;14.492;2023-04-09T10:54:51;22.17;;;13.05;;
75787;SDS011;64406;50.024;14.492;2023-04-09T10:59:32;18.92;;;11.90;;
75787;SDS011;64406;50.024;14.492;2023-04-09T11:02:07;19.48;;;12.07;;
75787;SDS011;64406;50.024;14.492;2023-04-09T11:04:38;24.77;;;14.35;;
75787;SDS011;64406;50.024;14.492;2023-04-09T11:07:12;25.63;;;15.43;;
75787;SDS011;64406;50.024;14.492;2023-04-09T11:09:40;24.08;;;14.73;;
75787;SDS011;64406;50.024;14.492;2023-04-09T11:12:05;22.10;;;13.60;;
75787;SDS011;64406;50.024;14.492;2023-04-09T11:14:32;19.33;;;12.38;;
75787;SDS011;64406;50.024;14.492;2023-04-09T11:16:57;18.55;;;11.55;;
75787;SDS011;64406;50.024;14.492;2023-04-09T11:19:23;20.17;;;12.02;;
75787;SDS011;64406;50.024;14.492;2023-04-09T11:21:49;18.38;;;11.02;;
75787;SDS011;64406;50.024;14.492;2023-04-09T11:24:17;18.50;;;11.70;;
75787;SDS011;64406;50.024;14.492;2023-04-09T11:26:43;19.65;;;11.85;;
75787;SDS011;64406;50.024;14.492;2023-04-09T11:29:10;21.55;;;12.65;;
75787;SDS011;64406;50.024;14.492;2023-04-09T11:31:35;20.48;;;13.18;;
75787;SDS011;64406;50.024;14.492;2023-04-09T11:34:01;25.20;;;13.85;;
75787;SDS011;64406;50.024;14.492;2023-04-09T11:36:27;20.15;;;12.48;;
75787;SDS011;64406;50.024;14.492;2023-04-09T11:38:53;17.52;;;11.60;;
75787;SDS011;64406;50.024;14.492;2023-04-09T11:41:35;19.25;;;11.65;;
75787;SDS011;64406;50.024;14.492;2023-04-09T11:44:06;19.70;;;11.77;;
75787;SDS011;64406;50.024;14.492;2023-04-09T11:46:35;21.63;;;12.88;;
75787;SDS011;64406;50.024;14.492;2023-04-09T11:49:03;20.63;;;12.00;;
75787;SDS011;64406;50.024;14.492;2023-04-09T11:51:29;19.85;;;12.68;;
75787;SDS011;64406;50.024;14.492;2023-04-09T11:54:06;19.30;;;11.95;;
75787;SDS011;64406;50.024;14.492;2023-04-09T11:56:32;22.30;;;12.27;;
75787;SDS011;64406;50.024;14.492;2023-04-09T11:59:00;19.10;;;11.98;;
75787;SDS011;64406;50.024;14.492;2023-04-09T12:01:33;22.05;;;12.52;;
75787;SDS011;64406;50.024;14.492;2023-04-09T12:03:59;24.80;;;13.93;;
75787;SDS011;64406;50.024;14.492;2023-04-09T12:06:25;23.05;;;13.55;;
75787;SDS011;64406;50.024;14.492;2023-04-09T12:08:55;25.50;;;14.48;;
75787;SDS011;64406;50.024;14.492;2023-04-09T12:11:30;23.35;;;14.18;;
75787;SDS011;64406;50.024;14.492;2023-04-09T12:14:03;29.07;;;16.20;;
75787;SDS011;64406;50.024;14.492;2023-04-09T12:16:30;27.33;;;14.40;;
75787;SDS011;64406;50.024;14.492;2023-04-09T12:19:04;25.08;;;15.15;;
75787;SDS011;64406;50.024;14.492;2023-04-09T12:24:15;24.60;;;15.50;;
75787;SDS011;64406;50.024;14.492;2023-04-09T12:26:42;26.40;;;16.33;;
75787;SDS011;64406;50.024;14.492;2023-04-09T12:29:08;25.35;;;14.77;;
75787;SDS011;64406;50.024;14.492;2023-04-09T12:31:33;26.15;;;15.55;;
75787;SDS011;64406;50.024;14.492;2023-04-09T12:33:59;22.92;;;14.63;;
75787;SDS011;64406;50.024;14.492;2023-04-09T12:36:24;25.88;;;15.45;;
75787;SDS011;64406;50.024;14.492;2023-04-09T12:38:50;24.45;;;15.95;;
75787;SDS011;64406;50.024;14.492;2023-04-09T12:41:16;26.77;;;15.95;;
75787;SDS011;64406;50.024;14.492;2023-04-09T12:43:42;26.95;;;16.08;;
75787;SDS011;64406;50.024;14.492;2023-04-09T12:46:08;26.77;;;15.20;;
75787;SDS011;64406;50.024;14.492;2023-04-09T12:48:34;25.42;;;15.25;;
75787;SDS011;64406;50.024;14.492;2023-04-09T12:51:00;24.23;;;14.23;;
75787;SDS011;64406;50.024;14.492;2023-04-09T12:53:26;26.95;;;16.00;;
75787;SDS011;64406;50.024;14.492;2023-04-09T12:55:51;23.77;;;15.13;;
75787;SDS011;64406;50.024;14.492;2023-04-09T12:58:17;27.17;;;15.52;;
75787;SDS011;64406;50.024;14.492;2023-04-09T13:00:43;24.92;;;14.55;;
75787;SDS011;64406;50.024;14.492;2023-04-09T13:03:08;21.65;;;13.27;;
75787;SDS011;64406;50.024;14.492;2023-04-09T13:05:34;23.83;;;14.57;;
75787;SDS011;64406;50.024;14.492;2023-04-09T13:08:00;22.98;;;13.57;;
75787;SDS011;64406;50.024;14.492;2023-04-09T13:10:29;19.13;;;11.98;;
75787;SDS011;64406;50.024;14.492;2023-04-09T13:12:55;17.85;;;10.95;;
75787;SDS011;64406;50.024;14.492;2023-04-09T13:15:21;18.38;;;11.57;;
75787;SDS011;64406;50.024;14.492;2023-04-09T13:17:47;19.10;;;11.05;;
75787;SDS011;64406;50.024;14.492;2023-04-09T13:20:13;20.35;;;11.95;;
75787;SDS011;64406;50.024;14.492;2023-04-09T13:22:38;22.85;;;12.98;;
75787;SDS011;64406;50.024;14.492;2023-04-09T13:25:04;17.55;;;11.50;;
75787;SDS011;64406;50.024;14.492;2023-04-09T13:27:30;18.40;;;12.00;;
75787;SDS011;64406;50.024;14.492;2023-04-09T13:29:55;19.10;;;11.45;;
75787;SDS011;64406;50.024;14.492;2023-04-09T13:32:21;22.35;;;12.63;;
75787;SDS011;64406;50.024;14.492;2023-04-09T13:34:48;18.75;;;11.35;;
75787;SDS011;64406;50.024;14.492;2023-04-09T13:37:15;19.48;;;12.23;;
75787;SDS011;64406;50.024;14.492;2023-04-09T13:39:41;19.67;;;12.32;;
75787;SDS011;64406;50.024;14.492;2023-04-09T13:42:09;19.77;;;12.07;;
75787;SDS011;64406;50.024;14.492;2023-04-09T13:44:34;18.52;;;11.68;;
75787;SDS011;64406;50.024;14.492;2023-04-09T13:47:00;18.58;;;11.25;;
75787;SDS011;64406;50.024;14.492;2023-04-09T13:49:25;21.35;;;12.45;;
75787;SDS011;64406;50.024;14.492;2023-04-09T13:51:52;22.15;;;11.95;;
75787;SDS011;64406;50.024;14.492;2023-04-09T13:54:17;17.52;;;10.27;;
75787;SDS011;64406;50.024;14.492;2023-04-09T13:56:44;18.83;;;11.15;;
75787;SDS011;64406;50.024;14.492;2023-04-09T13:59:10;17.83;;;10.85;;
75787;SDS011;64406;50.024;14.492;2023-04-09T14:01:36;17.10;;;11.18;;
75787;SDS011;64406;50.024;14.492;2023-04-09T14:04:01;19.17;;;11.68;;
75787;SDS011;64406;50.024;14.492;2023-04-09T14:06:27;19.05;;;12.27;;
75787;SDS011;64406;50.024;14.492;2023-04-09T14:08:53;20.30;;;12.25;;
75787;SDS011;64406;50.024;14.492;2023-04-09T14:11:18;19.55;;;12.50;;
75787;SDS011;64406;50.024;14.492;2023-04-09T14:13:44;17.75;;;11.70;;
75787;SDS011;64406;50.024;14.492;2023-04-09T14:16:10;20.40;;;12.13;;
75787;SDS011;64406;50.024;14.492;2023-04-09T14:18:35;17.23;;;11.70;;
75787;SDS011;64406;50.024;14.492;2023-04-09T14:21:01;19.73;;;12.25;;
75787;SDS011;64406;50.024;14.492;2023-04-09T14:23:27;21.25;;;12.15;;
75787;SDS011;64406;50.024;14.492;2023-04-09T14:25:53;20.92;;;12.25;;
75787;SDS011;64406;50.024;14.492;2023-04-09T14:28:18;21.63;;;12.68;;
75787;SDS011;64406;50.024;14.492;2023-04-09T14:30:44;21.63;;;12.90;;